sensor_id;sensor_type;location;lat;lon;timestamp;temperature;humidity
35027;DHT22;60696;51.426;6.934;2023-04-03T00:02:12;1.80;99.90
35027;DHT22;60696;51.426;6.934;2023-04-03T00:04:38;1.70;99.90
35027;DHT22;60696;51.426;6.934;2023-04-03T00:07:03;1.90;99.90
35027;DHT22;60696;51.426;6.934;2023-04-03T00:09:29;1.90;99.90
35027;DHT22;60696;51.426;6.934;2023-04-03T00:11:55;1.90;99.90
35027;DHT22;60696;51.426;6.934;2023-04-03T00:14:20;1.90;99.90
35027;DHT22;60696;51.426;6.934;2023-04-03T00:16:46;1.90;99.90
35027;DHT22;60696;51.426;6.934;2023-04-03T00:19:12;1.90;99.90
35027;DHT22;60696;51.426;6.934;2023-04-03T00:21:38;1.90;99.90
35027;DHT22;60696;51.426;6.934;2023-04-03T00:24:04;1.90;99.90
35027;DHT22;60696;51.426;6.934;2023-04-03T00:26:30;1.80;99.90
35027;DHT22;60696;51.426;6.934;2023-04-03T00:28:55;1.90;99.90
35027;DHT22;60696;51.426;6.934;2023-04-03T00:31:21;1.90;99.90
35027;DHT22;60696;51.426;6.934;2023-04-03T00:33:47;1.90;99.90
35027;DHT22;60696;51.426;6.934;2023-04-03T00:36:13;1.90;99.90
35027;DHT22;60696;51.426;6.934;2023-04-03T00:38:38;1.80;99.90
35027;DHT22;60696;51.426;6.934;2023-04-03T00:41:05;1.80;99.90
35027;DHT22;60696;51.426;6.934;2023-04-03T00:43:30;1.80;99.90
35027;DHT22;60696;51.426;6.934;2023-04-03T00:45:58;1.80;99.90
35027;DHT22;60696;51.426;6.934;2023-04-03T00:48:33;1.90;99.90
35027;DHT22;60696;51.426;6.934;2023-04-03T00:51:01;1.90;99.90
35027;DHT22;60696;51.426;6.934;2023-04-03T00:53:35;1.80;99.90
35027;DHT22;60696;51.426;6.934;2023-04-03T00:56:06;1.90;99.90
35027;DHT22;60696;51.426;6.934;2023-04-03T00:58:37;1.90;99.90
35027;DHT22;60696;51.426;6.934;2023-04-03T01:01:04;1.80;99.90
35027;DHT22;60696;51.426;6.934;2023-04-03T01:03:30;1.90;99.90
35027;DHT22;60696;51.426;6.934;2023-04-03T01:05:57;1.80;99.90
35027;DHT22;60696;51.426;6.934;2023-04-03T01:08:23;1.80;99.90
35027;DHT22;60696;51.426;6.934;2023-04-03T01:10:49;1.80;99.90
35027;DHT22;60696;51.426;6.934;2023-04-03T01:13:31;1.80;99.90
35027;DHT22;60696;51.426;6.934;2023-04-03T01:15:57;1.80;99.90
35027;DHT22;60696;51.426;6.934;2023-04-03T01:18:26;1.80;99.90
35027;DHT22;60696;51.426;6.934;2023-04-03T01:21:14;1.70;99.90
35027;DHT22;60696;51.426;6.934;2023-04-03T01:26:20;1.70;99.90
35027;DHT22;60696;51.426;6.934;2023-04-03T01:28:47;1.70;99.90
35027;DHT22;60696;51.426;6.934;2023-04-03T01:33:47;1.80;99.90
35027;DHT22;60696;51.426;6.934;2023-04-03T01:36:20;1.80;99.90
35027;DHT22;60696;51.426;6.934;2023-04-03T01:38:46;1.90;99.90
35027;DHT22;60696;51.426;6.934;2023-04-03T01:41:12;2.00;99.90
35027;DHT22;60696;51.426;6.934;2023-04-03T01:43:38;1.90;99.90
35027;DHT22;60696;51.426;6.934;2023-04-03T01:46:03;1.90;99.90
35027;DHT22;60696;51.426;6.934;2023-04-03T01:48:29;1.90;99.90
35027;DHT22;60696;51.426;6.934;2023-04-03T01:50:55;1.90;99.90
35027;DHT22;60696;51.426;6.934;2023-04-03T01:53:20;1.90;99.90
35027;DHT22;60696;51.426;6.934;2023-04-03T01:55:46;1.90;99.90
35027;DHT22;60696;51.426;6.934;2023-04-03T01:58:11;2.00;99.90
35027;DHT22;60696;51.426;6.934;2023-04-03T02:00:37;1.90;99.90
35027;DHT22;60696;51.426;6.934;2023-04-03T02:03:03;1.90;99.90
35027;DHT22;60696;51.426;6.934;2023-04-03T02:05:28;1.90;99.90
35027;DHT22;60696;51.426;6.934;2023-04-03T02:07:54;1.80;99.90
35027;DHT22;60696;51.426;6.934;2023-04-03T02:10:20;1.80;99.90
35027;DHT22;60696;51.426;6.934;2023-04-03T02:12:45;1.80;99.90
35027;DHT22;60696;51.426;6.934;2023-04-03T02:15:11;1.80;99.90
35027;DHT22;60696;51.426;6.934;2023-04-03T02:17:37;1.80;99.90
35027;DHT22;60696;51.426;6.934;2023-04-03T02:20:03;1.90;99.90
35027;DHT22;60696;51.426;6.934;2023-04-03T02:22:29;1.80;99.90
35027;DHT22;60696;51.426;6.934;2023-04-03T02:24:54;1.80;99.90
35027;DHT22;60696;51.426;6.934;2023-04-03T02:27:20;1.80;99.90
35027;DHT22;60696;51.426;6.934;2023-04-03T02:29:46;1.80;99.90
35027;DHT22;60696;51.426;6.934;2023-04-03T02:32:11;1.80;99.90
35027;DHT22;60696;51.426;6.934;2023-04-03T02:34:37;1.80;99.90
35027;DHT22;60696;51.426;6.934;2023-04-03T02:37:02;1.70;99.90
35027;DHT22;60696;51.426;6.934;2023-04-03T02:39:28;1.70;99.90
35027;DHT22;60696;51.426;6.934;2023-04-03T02:41:53;1.70;99.90
35027;DHT22;60696;51.426;6.934;2023-04-03T02:44:19;1.80;99.90
35027;DHT22;60696;51.426;6.934;2023-04-03T02:46:45;1.70;99.90
35027;DHT22;60696;51.426;6.934;2023-04-03T02:49:10;1.70;99.90
35027;DHT22;60696;51.426;6.934;2023-04-03T02:51:36;1.80;99.90
35027;DHT22;60696;51.426;6.934;2023-04-03T02:54:02;1.80;99.90
35027;DHT22;60696;51.426;6.934;2023-04-03T02:56:27;1.70;99.90
35027;DHT22;60696;51.426;6.934;2023-04-03T02:58:53;1.70;99.90
35027;DHT22;60696;51.426;6.934;2023-04-03T03:01:19;1.60;99.90
35027;DHT22;60696;51.426;6.934;2023-04-03T03:03:44;1.70;99.90
35027;DHT22;60696;51.426;6.934;2023-04-03T03:06:13;1.70;99.90
35027;DHT22;60696;51.426;6.934;2023-04-03T03:08:39;1.60;99.90
35027;DHT22;60696;51.426;6.934;2023-04-03T03:11:05;1.70;99.90
35027;DHT22;60696;51.426;6.934;2023-04-03T03:13:31;1.70;99.90
35027;DHT22;60696;51.426;6.934;2023-04-03T03:15:57;1.70;99.90
35027;DHT22;60696;51.426;6.934;2023-04-03T03:18:23;1.70;99.90
35027;DHT22;60696;51.426;6.934;2023-04-03T03:20:53;1.70;99.90
35027;DHT22;60696;51.426;6.934;2023-04-03T03:23:20;1.70;99.90
35027;DHT22;60696;51.426;6.934;2023-04-03T03:25:46;1.70;99.90
35027;DHT22;60696;51.426;6.934;2023-04-03T03:28:11;1.60;99.90
35027;DHT22;60696;51.426;6.934;2023-04-03T03:30:37;1.70;99.90
35027;DHT22;60696;51.426;6.934;2023-04-03T03:33:03;1.70;99.90
35027;DHT22;60696;51.426;6.934;2023-04-03T03:35:29;1.80;99.90
35027;DHT22;60696;51.426;6.934;2023-04-03T03:37:55;1.70;99.90
35027;DHT22;60696;51.426;6.934;2023-04-03T03:40:20;1.70;99.90
35027;DHT22;60696;51.426;6.934;2023-04-03T03:42:46;1.60;99.90
35027;DHT22;60696;51.426;6.934;2023-04-03T03:45:11;1.70;99.90
35027;DHT22;60696;51.426;6.934;2023-04-03T03:47:37;1.70;99.90
35027;DHT22;60696;51.426;6.934;2023-04-03T03:50:03;1.70;99.90
35027;DHT22;60696;51.426;6.934;2023-04-03T03:52:29;1.70;99.90
35027;DHT22;60696;51.426;6.934;2023-04-03T03:54:55;1.60;99.90
35027;DHT22;60696;51.426;6.934;2023-04-03T03:57:21;1.60;99.90
35027;DHT22;60696;51.426;6.934;2023-04-03T03:59:47;1.70;99.90
35027;DHT22;60696;51.426;6.934;2023-04-03T04:02:14;1.60;99.90
35027;DHT22;60696;51.426;6.934;2023-04-03T04:04:40;1.70;99.90
35027;DHT22;60696;51.426;6.934;2023-04-03T04:07:06;1.60;99.90
35027;DHT22;60696;51.426;6.934;2023-04-03T04:09:31;1.50;99.90
35027;DHT22;60696;51.426;6.934;2023-04-03T04:11:57;1.40;99.90
35027;DHT22;60696;51.426;6.934;2023-04-03T04:14:23;1.40;99.90
35027;DHT22;60696;51.426;6.934;2023-04-03T04:16:48;1.40;99.90
35027;DHT22;60696;51.426;6.934;2023-04-03T04:19:14;1.40;99.90
35027;DHT22;60696;51.426;6.934;2023-04-03T04:21:40;1.40;99.90
35027;DHT22;60696;51.426;6.934;2023-04-03T04:24:07;1.50;99.90
35027;DHT22;60696;51.426;6.934;2023-04-03T04:26:32;1.50;99.90
35027;DHT22;60696;51.426;6.934;2023-04-03T04:28:58;1.40;99.90
35027;DHT22;60696;51.426;6.934;2023-04-03T04:31:24;1.40;99.90
35027;DHT22;60696;51.426;6.934;2023-04-03T04:33:49;1.30;99.90
35027;DHT22;60696;51.426;6.934;2023-04-03T04:36:15;1.30;99.90
35027;DHT22;60696;51.426;6.934;2023-04-03T04:38:41;1.40;99.90
35027;DHT22;60696;51.426;6.934;2023-04-03T04:41:07;1.40;99.90
35027;DHT22;60696;51.426;6.934;2023-04-03T04:43:33;1.40;99.90
35027;DHT22;60696;51.426;6.934;2023-04-03T04:46:07;1.40;99.90
35027;DHT22;60696;51.426;6.934;2023-04-03T04:48:34;1.40;99.90
35027;DHT22;60696;51.426;6.934;2023-04-03T04:51:00;1.50;99.90
35027;DHT22;60696;51.426;6.934;2023-04-03T04:53:25;1.40;99.90
35027;DHT22;60696;51.426;6.934;2023-04-03T04:55:52;1.40;99.90
35027;DHT22;60696;51.426;6.934;2023-04-03T04:58:18;1.40;99.90
35027;DHT22;60696;51.426;6.934;2023-04-03T05:00:44;1.50;99.90
35027;DHT22;60696;51.426;6.934;2023-04-03T05:03:09;1.50;99.90
35027;DHT22;60696;51.426;6.934;2023-04-03T05:05:35;1.40;99.90
35027;DHT22;60696;51.426;6.934;2023-04-03T05:08:01;1.30;99.90
35027;DHT22;60696;51.426;6.934;2023-04-03T05:10:28;1.30;99.90
35027;DHT22;60696;51.426;6.934;2023-04-03T05:12:53;1.30;99.90
35027;DHT22;60696;51.426;6.934;2023-04-03T05:15:19;1.30;99.90
35027;DHT22;60696;51.426;6.934;2023-04-03T05:17:45;1.20;99.90
35027;DHT22;60696;51.426;6.934;2023-04-03T05:20:11;1.20;99.90
35027;DHT22;60696;51.426;6.934;2023-04-03T05:22:37;1.20;99.90
35027;DHT22;60696;51.426;6.934;2023-04-03T05:25:03;1.20;99.90
35027;DHT22;60696;51.426;6.934;2023-04-03T05:27:29;1.30;99.90
35027;DHT22;60696;51.426;6.934;2023-04-03T05:29:55;1.30;99.90
35027;DHT22;60696;51.426;6.934;2023-04-03T05:32:22;1.30;99.90
35027;DHT22;60696;51.426;6.934;2023-04-03T05:34:48;1.40;99.90
35027;DHT22;60696;51.426;6.934;2023-04-03T05:37:14;1.40;99.90
35027;DHT22;60696;51.426;6.934;2023-04-03T05:39:40;1.40;99.90
35027;DHT22;60696;51.426;6.934;2023-04-03T05:42:07;1.30;99.90
35027;DHT22;60696;51.426;6.934;2023-04-03T05:44:33;1.40;99.90
35027;DHT22;60696;51.426;6.934;2023-04-03T05:46:58;1.40;99.90
35027;DHT22;60696;51.426;6.934;2023-04-03T05:49:24;1.40;99.90
35027;DHT22;60696;51.426;6.934;2023-04-03T05:51:50;1.40;99.90
35027;DHT22;60696;51.426;6.934;2023-04-03T05:54:23;1.40;99.90
35027;DHT22;60696;51.426;6.934;2023-04-03T05:56:49;1.40;99.90
35027;DHT22;60696;51.426;6.934;2023-04-03T05:59:16;1.40;99.90
35027;DHT22;60696;51.426;6.934;2023-04-03T06:01:42;1.50;99.90
35027;DHT22;60696;51.426;6.934;2023-04-03T06:04:07;1.50;99.90
35027;DHT22;60696;51.426;6.934;2023-04-03T06:07:06;1.90;99.90
35027;DHT22;60696;51.426;6.934;2023-04-03T06:09:33;2.60;99.90
35027;DHT22;60696;51.426;6.934;2023-04-03T06:11:59;3.10;99.90
35027;DHT22;60696;51.426;6.934;2023-04-03T06:14:25;3.80;99.90
35027;DHT22;60696;51.426;6.934;2023-04-03T06:16:52;4.30;99.90
35027;DHT22;60696;51.426;6.934;2023-04-03T06:19:19;4.80;99.90
35027;DHT22;60696;51.426;6.934;2023-04-03T06:21:45;5.40;99.90
35027;DHT22;60696;51.426;6.934;2023-04-03T06:24:15;6.30;99.90
35027;DHT22;60696;51.426;6.934;2023-04-03T06:26:40;6.40;99.90
35027;DHT22;60696;51.426;6.934;2023-04-03T06:29:06;6.10;99.90
35027;DHT22;60696;51.426;6.934;2023-04-03T06:31:32;5.70;99.90
35027;DHT22;60696;51.426;6.934;2023-04-03T06:33:58;6.20;99.90
35027;DHT22;60696;51.426;6.934;2023-04-03T06:36:23;6.00;99.90
35027;DHT22;60696;51.426;6.934;2023-04-03T06:38:49;6.30;99.90
35027;DHT22;60696;51.426;6.934;2023-04-03T06:41:15;5.90;99.90
35027;DHT22;60696;51.426;6.934;2023-04-03T06:43:42;6.20;99.90
35027;DHT22;60696;51.426;6.934;2023-04-03T06:46:16;5.50;99.90
35027;DHT22;60696;51.426;6.934;2023-04-03T06:48:43;4.60;99.90
35027;DHT22;60696;51.426;6.934;2023-04-03T06:51:20;3.90;99.90
35027;DHT22;60696;51.426;6.934;2023-04-03T06:53:47;3.80;99.90
35027;DHT22;60696;51.426;6.934;2023-04-03T06:56:13;3.80;99.90
35027;DHT22;60696;51.426;6.934;2023-04-03T06:58:40;3.90;99.90
35027;DHT22;60696;51.426;6.934;2023-04-03T07:01:06;3.90;99.90
35027;DHT22;60696;51.426;6.934;2023-04-03T07:03:31;3.90;99.90
35027;DHT22;60696;51.426;6.934;2023-04-03T07:05:57;4.00;99.90
35027;DHT22;60696;51.426;6.934;2023-04-03T07:08:22;4.00;99.90
35027;DHT22;60696;51.426;6.934;2023-04-03T07:10:49;5.30;99.90
35027;DHT22;60696;51.426;6.934;2023-04-03T07:13:15;6.00;99.90
35027;DHT22;60696;51.426;6.934;2023-04-03T07:15:41;5.50;99.90
35027;DHT22;60696;51.426;6.934;2023-04-03T07:18:06;5.60;99.90
35027;DHT22;60696;51.426;6.934;2023-04-03T07:20:32;6.50;99.90
35027;DHT22;60696;51.426;6.934;2023-04-03T07:22:58;7.50;99.90
35027;DHT22;60696;51.426;6.934;2023-04-03T07:25:23;8.30;96.00
35027;DHT22;60696;51.426;6.934;2023-04-03T07:27:49;9.20;92.60
35027;DHT22;60696;51.426;6.934;2023-04-03T07:30:15;9.10;93.00
35027;DHT22;60696;51.426;6.934;2023-04-03T07:32:40;8.50;92.50
35027;DHT22;60696;51.426;6.934;2023-04-03T07:35:06;8.50;92.40
35027;DHT22;60696;51.426;6.934;2023-04-03T07:37:32;8.20;92.80
35027;DHT22;60696;51.426;6.934;2023-04-03T07:39:58;8.60;92.00
35027;DHT22;60696;51.426;6.934;2023-04-03T07:42:24;8.80;90.40
35027;DHT22;60696;51.426;6.934;2023-04-03T07:44:53;8.70;91.10
35027;DHT22;60696;51.426;6.934;2023-04-03T07:47:18;9.30;87.90
35027;DHT22;60696;51.426;6.934;2023-04-03T07:49:45;9.80;87.40
35027;DHT22;60696;51.426;6.934;2023-04-03T07:52:23;9.90;81.00
35027;DHT22;60696;51.426;6.934;2023-04-03T07:54:49;9.80;80.90
35027;DHT22;60696;51.426;6.934;2023-04-03T07:57:15;10.10;79.10
35027;DHT22;60696;51.426;6.934;2023-04-03T07:59:40;10.30;77.40
35027;DHT22;60696;51.426;6.934;2023-04-03T08:02:09;10.00;77.50
35027;DHT22;60696;51.426;6.934;2023-04-03T08:04:35;10.20;76.90
35027;DHT22;60696;51.426;6.934;2023-04-03T08:07:01;10.10;78.60
35027;DHT22;60696;51.426;6.934;2023-04-03T08:09:26;11.70;72.90
35027;DHT22;60696;51.426;6.934;2023-04-03T08:11:52;12.90;67.10
35027;DHT22;60696;51.426;6.934;2023-04-03T08:14:19;13.60;61.70
35027;DHT22;60696;51.426;6.934;2023-04-03T08:16:47;13.10;59.30
35027;DHT22;60696;51.426;6.934;2023-04-03T08:19:14;12.10;63.40
35027;DHT22;60696;51.426;6.934;2023-04-03T08:21:42;11.70;59.70
35027;DHT22;60696;51.426;6.934;2023-04-03T08:24:08;11.50;61.80
35027;DHT22;60696;51.426;6.934;2023-04-03T08:26:34;10.90;61.60
35027;DHT22;60696;51.426;6.934;2023-04-03T08:29:00;10.70;63.50
35027;DHT22;60696;51.426;6.934;2023-04-03T08:31:26;10.70;64.50
35027;DHT22;60696;51.426;6.934;2023-04-03T08:33:52;11.00;66.90
35027;DHT22;60696;51.426;6.934;2023-04-03T08:36:22;11.20;64.60
35027;DHT22;60696;51.426;6.934;2023-04-03T08:38:49;11.70;58.50
35027;DHT22;60696;51.426;6.934;2023-04-03T08:49:40;12.70;61.00
35027;DHT22;60696;51.426;6.934;2023-04-03T08:52:14;12.90;55.10
35027;DHT22;60696;51.426;6.934;2023-04-03T08:54:56;13.00;57.50
35027;DHT22;60696;51.426;6.934;2023-04-03T08:57:33;13.10;51.60
35027;DHT22;60696;51.426;6.934;2023-04-03T09:00:21;11.70;59.20
35027;DHT22;60696;51.426;6.934;2023-04-03T09:02:50;12.50;55.90
35027;DHT22;60696;51.426;6.934;2023-04-03T09:05:20;12.40;56.70
35027;DHT22;60696;51.426;6.934;2023-04-03T09:08:03;12.40;53.90
35027;DHT22;60696;51.426;6.934;2023-04-03T09:10:33;13.20;54.10
35027;DHT22;60696;51.426;6.934;2023-04-03T09:15:37;12.50;53.20
35027;DHT22;60696;51.426;6.934;2023-04-03T09:18:11;12.60;54.60
35027;DHT22;60696;51.426;6.934;2023-04-03T09:21:23;12.80;51.20
35027;DHT22;60696;51.426;6.934;2023-04-03T09:23:52;13.10;48.60
35027;DHT22;60696;51.426;6.934;2023-04-03T09:26:30;13.00;47.40
35027;DHT22;60696;51.426;6.934;2023-04-03T09:29:01;13.00;49.20
35027;DHT22;60696;51.426;6.934;2023-04-03T09:31:42;12.90;49.30
35027;DHT22;60696;51.426;6.934;2023-04-03T09:34:27;12.80;47.90
35027;DHT22;60696;51.426;6.934;2023-04-03T09:36:55;12.90;46.70
35027;DHT22;60696;51.426;6.934;2023-04-03T09:39:25;12.50;48.70
35027;DHT22;60696;51.426;6.934;2023-04-03T09:44:25;13.10;44.60
35027;DHT22;60696;51.426;6.934;2023-04-03T09:46:51;14.00;43.10
35027;DHT22;60696;51.426;6.934;2023-04-03T09:49:18;12.90;45.00
35027;DHT22;60696;51.426;6.934;2023-04-03T09:51:44;12.30;45.10
35027;DHT22;60696;51.426;6.934;2023-04-03T09:56:56;12.30;43.30
35027;DHT22;60696;51.426;6.934;2023-04-03T09:59:23;12.50;43.00
35027;DHT22;60696;51.426;6.934;2023-04-03T10:04:39;12.40;44.20
35027;DHT22;60696;51.426;6.934;2023-04-03T10:07:33;13.30;43.70
35027;DHT22;60696;51.426;6.934;2023-04-03T10:10:03;12.20;43.50
35027;DHT22;60696;51.426;6.934;2023-04-03T10:12:29;11.40;45.40
35027;DHT22;60696;51.426;6.934;2023-04-03T10:14:58;11.80;46.20
35027;DHT22;60696;51.426;6.934;2023-04-03T10:18:00;11.30;45.20
35027;DHT22;60696;51.426;6.934;2023-04-03T10:20:36;11.50;46.10
35027;DHT22;60696;51.426;6.934;2023-04-03T10:23:18;10.50;47.40
35027;DHT22;60696;51.426;6.934;2023-04-03T10:31:29;11.00;47.90
35027;DHT22;60696;51.426;6.934;2023-04-03T10:34:48;11.60;47.20
35027;DHT22;60696;51.426;6.934;2023-04-03T10:39:52;11.30;47.60
35027;DHT22;60696;51.426;6.934;2023-04-03T10:42:39;11.70;48.10
35027;DHT22;60696;51.426;6.934;2023-04-03T10:48:00;11.80;49.40
35027;DHT22;60696;51.426;6.934;2023-04-03T10:58:34;10.10;52.40
35027;DHT22;60696;51.426;6.934;2023-04-03T11:01:10;10.00;52.80
35027;DHT22;60696;51.426;6.934;2023-04-03T11:03:43;9.20;53.90
35027;DHT22;60696;51.426;6.934;2023-04-03T11:06:14;8.80;53.90
35027;DHT22;60696;51.426;6.934;2023-04-03T11:08:53;8.90;55.70
35027;DHT22;60696;51.426;6.934;2023-04-03T11:11:31;8.80;55.80
35027;DHT22;60696;51.426;6.934;2023-04-03T11:16:45;9.00;56.00
35027;DHT22;60696;51.426;6.934;2023-04-03T11:19:19;9.30;54.10
35027;DHT22;60696;51.426;6.934;2023-04-03T11:21:57;9.30;56.30
35027;DHT22;60696;51.426;6.934;2023-04-03T11:24:29;9.10;55.10
35027;DHT22;60696;51.426;6.934;2023-04-03T11:26:57;9.30;58.90
35027;DHT22;60696;51.426;6.934;2023-04-03T11:29:29;9.20;56.90
35027;DHT22;60696;51.426;6.934;2023-04-03T11:34:50;9.40;55.40
35027;DHT22;60696;51.426;6.934;2023-04-03T11:37:25;8.80;56.10
35027;DHT22;60696;51.426;6.934;2023-04-03T11:40:08;9.10;57.90
35027;DHT22;60696;51.426;6.934;2023-04-03T11:42:55;9.30;57.10
35027;DHT22;60696;51.426;6.934;2023-04-03T11:46:00;8.90;56.60
35027;DHT22;60696;51.426;6.934;2023-04-03T11:53:46;9.40;55.60
35027;DHT22;60696;51.426;6.934;2023-04-03T12:04:16;9.40;56.80
35027;DHT22;60696;51.426;6.934;2023-04-03T12:06:51;9.30;56.30
35027;DHT22;60696;51.426;6.934;2023-04-03T12:12:29;9.30;54.80
35027;DHT22;60696;51.426;6.934;2023-04-03T12:14:55;8.70;54.10
35027;DHT22;60696;51.426;6.934;2023-04-03T12:17:25;8.80;55.80
35027;DHT22;60696;51.426;6.934;2023-04-03T12:19:51;9.30;56.70
35027;DHT22;60696;51.426;6.934;2023-04-03T12:22:19;9.50;53.50
35027;DHT22;60696;51.426;6.934;2023-04-03T12:24:48;9.50;52.70
35027;DHT22;60696;51.426;6.934;2023-04-03T12:27:22;9.00;53.10
35027;DHT22;60696;51.426;6.934;2023-04-03T12:35:31;8.70;56.10
35027;DHT22;60696;51.426;6.934;2023-04-03T12:44:53;9.40;56.00
35027;DHT22;60696;51.426;6.934;2023-04-03T12:47:00;9.10;55.10
35027;DHT22;60696;51.426;6.934;2023-04-03T12:49:33;8.60;55.80
35027;DHT22;60696;51.426;6.934;2023-04-03T12:52:04;8.90;54.30
35027;DHT22;60696;51.426;6.934;2023-04-03T12:54:38;8.60;54.20
35027;DHT22;60696;51.426;6.934;2023-04-03T12:59:40;8.80;56.50
35027;DHT22;60696;51.426;6.934;2023-04-03T13:02:25;8.50;54.10
35027;DHT22;60696;51.426;6.934;2023-04-03T13:04:53;8.80;55.20
35027;DHT22;60696;51.426;6.934;2023-04-03T13:07:27;8.60;54.60
35027;DHT22;60696;51.426;6.934;2023-04-03T13:09:58;8.30;54.50
35027;DHT22;60696;51.426;6.934;2023-04-03T13:12:24;8.30;55.60
35027;DHT22;60696;51.426;6.934;2023-04-03T13:14:59;8.40;55.80
35027;DHT22;60696;51.426;6.934;2023-04-03T13:17:26;8.80;55.70
35027;DHT22;60696;51.426;6.934;2023-04-03T13:19:54;8.90;53.60
35027;DHT22;60696;51.426;6.934;2023-04-03T13:22:37;8.90;55.20
35027;DHT22;60696;51.426;6.934;2023-04-03T13:25:11;8.70;53.70
35027;DHT22;60696;51.426;6.934;2023-04-03T13:27:38;8.50;55.20
35027;DHT22;60696;51.426;6.934;2023-04-03T13:30:35;8.50;54.60
35027;DHT22;60696;51.426;6.934;2023-04-03T13:33:24;8.50;54.10
35027;DHT22;60696;51.426;6.934;2023-04-03T13:38:41;8.70;55.20
35027;DHT22;60696;51.426;6.934;2023-04-03T13:41:46;8.90;55.50
35027;DHT22;60696;51.426;6.934;2023-04-03T13:44:33;8.60;55.90
35027;DHT22;60696;51.426;6.934;2023-04-03T13:47:21;8.50;57.10
35027;DHT22;60696;51.426;6.934;2023-04-03T13:55:09;8.80;57.00
35027;DHT22;60696;51.426;6.934;2023-04-03T14:03:39;9.00;55.90
35027;DHT22;60696;51.426;6.934;2023-04-03T14:06:06;8.50;55.80
35027;DHT22;60696;51.426;6.934;2023-04-03T14:08:32;8.30;57.10
35027;DHT22;60696;51.426;6.934;2023-04-03T14:13:33;8.70;55.80
35027;DHT22;60696;51.426;6.934;2023-04-03T14:15:58;8.60;57.10
35027;DHT22;60696;51.426;6.934;2023-04-03T14:18:25;8.60;55.90
35027;DHT22;60696;51.426;6.934;2023-04-03T14:20:51;8.30;55.30
35027;DHT22;60696;51.426;6.934;2023-04-03T14:23:16;8.40;55.80
35027;DHT22;60696;51.426;6.934;2023-04-03T14:25:42;8.30;56.70
35027;DHT22;60696;51.426;6.934;2023-04-03T14:28:20;8.30;57.20
35027;DHT22;60696;51.426;6.934;2023-04-03T14:30:48;8.30;57.70
35027;DHT22;60696;51.426;6.934;2023-04-03T14:33:18;8.40;57.30
35027;DHT22;60696;51.426;6.934;2023-04-03T14:35:44;8.50;56.20
35027;DHT22;60696;51.426;6.934;2023-04-03T14:38:28;8.30;56.80
35027;DHT22;60696;51.426;6.934;2023-04-03T14:40:56;8.20;57.30
35027;DHT22;60696;51.426;6.934;2023-04-03T14:43:22;8.30;57.40
35027;DHT22;60696;51.426;6.934;2023-04-03T14:45:48;8.30;56.90
35027;DHT22;60696;51.426;6.934;2023-04-03T14:48:21;8.10;58.00
35027;DHT22;60696;51.426;6.934;2023-04-03T14:50:48;8.20;58.00
35027;DHT22;60696;51.426;6.934;2023-04-03T14:53:14;8.20;57.90
35027;DHT22;60696;51.426;6.934;2023-04-03T14:55:44;8.50;58.60
35027;DHT22;60696;51.426;6.934;2023-04-03T14:58:16;8.40;58.60
35027;DHT22;60696;51.426;6.934;2023-04-03T15:00:42;8.20;58.60
35027;DHT22;60696;51.426;6.934;2023-04-03T15:03:20;8.40;57.90
35027;DHT22;60696;51.426;6.934;2023-04-03T15:05:47;8.50;58.10
35027;DHT22;60696;51.426;6.934;2023-04-03T15:10:44;8.40;57.70
35027;DHT22;60696;51.426;6.934;2023-04-03T15:13:12;8.30;57.60
35027;DHT22;60696;51.426;6.934;2023-04-03T15:15:38;8.10;57.30
35027;DHT22;60696;51.426;6.934;2023-04-03T15:18:03;8.00;58.00
35027;DHT22;60696;51.426;6.934;2023-04-03T15:20:30;7.90;58.80
35027;DHT22;60696;51.426;6.934;2023-04-03T15:22:58;8.00;59.50
35027;DHT22;60696;51.426;6.934;2023-04-03T15:25:27;8.10;59.00
35027;DHT22;60696;51.426;6.934;2023-04-03T15:27:54;7.80;58.00
35027;DHT22;60696;51.426;6.934;2023-04-03T15:30:20;7.80;58.80
35027;DHT22;60696;51.426;6.934;2023-04-03T15:32:47;7.90;58.80
35027;DHT22;60696;51.426;6.934;2023-04-03T15:35:13;7.90;58.60
35027;DHT22;60696;51.426;6.934;2023-04-03T15:37:39;7.90;59.50
35027;DHT22;60696;51.426;6.934;2023-04-03T15:40:05;7.80;59.00
35027;DHT22;60696;51.426;6.934;2023-04-03T15:42:31;7.90;59.50
35027;DHT22;60696;51.426;6.934;2023-04-03T15:44:57;7.90;59.30
35027;DHT22;60696;51.426;6.934;2023-04-03T15:47:24;7.90;58.30
35027;DHT22;60696;51.426;6.934;2023-04-03T15:49:50;7.90;58.20
35027;DHT22;60696;51.426;6.934;2023-04-03T15:52:16;8.20;60.80
35027;DHT22;60696;51.426;6.934;2023-04-03T15:54:41;8.10;60.50
35027;DHT22;60696;51.426;6.934;2023-04-03T15:57:07;7.80;59.70
35027;DHT22;60696;51.426;6.934;2023-04-03T15:59:32;7.80;59.70
35027;DHT22;60696;51.426;6.934;2023-04-03T16:01:59;7.80;59.80
35027;DHT22;60696;51.426;6.934;2023-04-03T16:04:26;7.90;59.70
35027;DHT22;60696;51.426;6.934;2023-04-03T16:06:52;7.90;58.90
35027;DHT22;60696;51.426;6.934;2023-04-03T16:09:18;7.90;60.60
35027;DHT22;60696;51.426;6.934;2023-04-03T16:11:43;8.00;60.90
35027;DHT22;60696;51.426;6.934;2023-04-03T16:14:09;8.10;60.40
35027;DHT22;60696;51.426;6.934;2023-04-03T16:16:36;8.10;60.00
35027;DHT22;60696;51.426;6.934;2023-04-03T16:19:03;8.10;59.20
35027;DHT22;60696;51.426;6.934;2023-04-03T16:21:29;8.10;59.50
35027;DHT22;60696;51.426;6.934;2023-04-03T16:23:57;8.00;59.60
35027;DHT22;60696;51.426;6.934;2023-04-03T16:26:23;7.80;60.20
35027;DHT22;60696;51.426;6.934;2023-04-03T16:28:48;7.60;60.60
35027;DHT22;60696;51.426;6.934;2023-04-03T16:31:14;7.60;61.20
35027;DHT22;60696;51.426;6.934;2023-04-03T16:33:40;7.60;60.80
35027;DHT22;60696;51.426;6.934;2023-04-03T16:36:06;7.60;60.50
35027;DHT22;60696;51.426;6.934;2023-04-03T16:38:31;7.70;61.50
35027;DHT22;60696;51.426;6.934;2023-04-03T16:40:57;7.50;61.30
35027;DHT22;60696;51.426;6.934;2023-04-03T16:43:25;7.50;61.70
35027;DHT22;60696;51.426;6.934;2023-04-03T16:45:51;7.50;60.80
35027;DHT22;60696;51.426;6.934;2023-04-03T16:48:17;7.40;60.30
35027;DHT22;60696;51.426;6.934;2023-04-03T16:50:46;7.40;60.30
35027;DHT22;60696;51.426;6.934;2023-04-03T16:53:13;7.30;61.00
35027;DHT22;60696;51.426;6.934;2023-04-03T16:55:38;7.20;61.20
35027;DHT22;60696;51.426;6.934;2023-04-03T16:58:05;7.20;61.20
35027;DHT22;60696;51.426;6.934;2023-04-03T17:00:31;7.20;61.50
35027;DHT22;60696;51.426;6.934;2023-04-03T17:02:57;7.20;62.10
35027;DHT22;60696;51.426;6.934;2023-04-03T17:05:22;7.20;61.90
35027;DHT22;60696;51.426;6.934;2023-04-03T17:07:50;7.30;62.50
35027;DHT22;60696;51.426;6.934;2023-04-03T17:10:15;7.30;63.10
35027;DHT22;60696;51.426;6.934;2023-04-03T17:12:41;7.20;62.60
35027;DHT22;60696;51.426;6.934;2023-04-03T17:15:07;7.10;61.40
35027;DHT22;60696;51.426;6.934;2023-04-03T17:17:32;7.00;61.00
35027;DHT22;60696;51.426;6.934;2023-04-03T17:19:58;6.90;60.60
35027;DHT22;60696;51.426;6.934;2023-04-03T17:22:24;6.90;61.30
35027;DHT22;60696;51.426;6.934;2023-04-03T17:24:50;6.80;61.80
35027;DHT22;60696;51.426;6.934;2023-04-03T17:27:16;6.90;62.30
35027;DHT22;60696;51.426;6.934;2023-04-03T17:29:41;6.80;61.60
35027;DHT22;60696;51.426;6.934;2023-04-03T17:32:07;6.80;61.80
35027;DHT22;60696;51.426;6.934;2023-04-03T17:34:33;6.70;61.90